createdAt,value
2022-08-04T00:00:24.368Z,2.27
2022-08-04T00:02:57.777Z,1.90
2022-08-04T00:05:53.102Z,1.87
2022-08-04T00:08:41.385Z,2.10
2022-08-04T00:11:11.991Z,1.67
2022-08-04T00:13:58.727Z,1.57
2022-08-04T00:16:37.987Z,2.17
2022-08-04T00:19:18.176Z,1.90
2022-08-04T00:21:56.813Z,2.57
2022-08-04T00:24:24.379Z,2.40
2022-08-04T00:26:54.694Z,1.90
2022-08-04T00:29:23.095Z,1.83
2022-08-04T00:31:56.309Z,1.80
2022-08-04T00:34:29.281Z,2.07
2022-08-04T00:36:57.736Z,2.17
2022-08-04T00:39:26.542Z,2.23
2022-08-04T00:42:06.933Z,1.70
2022-08-04T00:44:48.756Z,1.90
2022-08-04T00:47:18.903Z,1.90
2022-08-04T00:49:58.337Z,1.90
2022-08-04T00:52:47.260Z,1.50
2022-08-04T00:55:26.204Z,1.40
2022-08-04T00:58:02.541Z,1.20
2022-08-04T01:00:44.365Z,1.50
2022-08-04T01:03:42.216Z,1.73
2022-08-04T01:06:37.610Z,1.50
2022-08-04T01:09:10.615Z,2.20
2022-08-04T01:12:53.146Z,1.53
2022-08-04T01:16:00.338Z,1.70
2022-08-04T01:18:49.719Z,2.17
2022-08-04T01:21:29.269Z,1.87
2022-08-04T01:24:38.831Z,1.60
2022-08-04T01:27:11.479Z,2.07
2022-08-04T01:29:48.849Z,1.60
2022-08-04T01:32:27.771Z,1.97
2022-08-04T01:35:47.443Z,1.70
2022-08-04T01:38:21.548Z,1.67
2022-08-04T01:40:53.052Z,1.50
2022-08-04T01:43:21.229Z,2.10
2022-08-04T01:45:58.747Z,1.80
2022-08-04T01:48:26.963Z,1.70
2022-08-04T01:50:58.512Z,2.50
2022-08-04T01:53:32.119Z,1.43
2022-08-04T01:56:01.437Z,1.17
2022-08-04T01:58:33.235Z,2.13
2022-08-04T02:01:09.514Z,1.43
2022-08-04T02:04:19.947Z,1.70
2022-08-04T02:07:00.178Z,1.90
2022-08-04T02:09:55.086Z,1.50
2022-08-04T02:12:41.002Z,1.80
2022-08-04T02:15:21.072Z,2.23
2022-08-04T02:18:19.574Z,2.07
2022-08-04T02:20:53.270Z,1.33
2022-08-04T02:23:30.307Z,1.30
2022-08-04T02:26:26.995Z,2.10
2022-08-04T02:29:01.904Z,1.30
2022-08-04T02:31:33.870Z,2.27
2022-08-04T02:34:15.373Z,2.10
2022-08-04T02:36:43.633Z,2.13
2022-08-04T02:39:12.132Z,2.10
2022-08-04T02:41:40.351Z,3.23
2022-08-04T02:44:09.229Z,1.70
2022-08-04T02:46:38.025Z,1.87
2022-08-04T02:49:06.589Z,1.73
2022-08-04T02:51:35.376Z,2.00
2022-08-04T02:54:04.877Z,2.37
2022-08-04T02:56:33.379Z,1.73
2022-08-04T02:59:02.479Z,1.40
2022-08-04T03:01:30.309Z,1.40
2022-08-04T03:04:13.066Z,2.23
2022-08-04T03:06:54.751Z,1.57
2022-08-04T03:09:57.641Z,2.03
2022-08-04T03:12:27.662Z,1.70
2022-08-04T03:15:13.693Z,1.70
2022-08-04T03:18:10.691Z,1.67
2022-08-04T03:20:56.722Z,1.73
2022-08-04T03:23:36.146Z,1.93
2022-08-04T03:26:22.558Z,2.97
2022-08-04T03:29:08.851Z,2.13
2022-08-04T03:31:39.116Z,2.30
2022-08-04T03:34:21.622Z,2.23
2022-08-04T03:37:01.158Z,1.87
2022-08-04T03:39:37.930Z,2.47
2022-08-04T03:42:23.556Z,1.70
2022-08-04T03:45:23.117Z,1.63
2022-08-04T03:47:54.592Z,1.53
2022-08-04T03:50:28.096Z,1.90
2022-08-04T03:53:04.658Z,1.80
2022-08-04T03:55:50.879Z,2.07
2022-08-04T03:58:18.348Z,2.13
2022-08-04T04:00:51.721Z,1.97
2022-08-04T04:03:34.466Z,2.27
2022-08-04T04:06:04.913Z,1.77
2022-08-04T04:08:51.052Z,1.53
2022-08-04T04:11:30.778Z,2.40
2022-08-04T04:13:58.292Z,1.87
2022-08-04T04:16:44.233Z,2.00
2022-08-04T04:19:30.437Z,2.10
2022-08-04T04:22:03.789Z,2.00
2022-08-04T04:24:49.848Z,2.50
2022-08-04T04:27:20.345Z,2.27
2022-08-04T04:30:06.852Z,2.03
2022-08-04T04:32:47.193Z,1.90
2022-08-04T04:35:27.931Z,2.17
2022-08-04T04:38:15.680Z,1.87
2022-08-04T04:40:50.679Z,1.87
2022-08-04T04:43:50.919Z,1.80
2022-08-04T04:46:15.335Z,2.07
2022-08-04T04:48:48.770Z,2.13
2022-08-04T04:51:38.499Z,1.80
2022-08-04T04:54:20.668Z,1.87
2022-08-04T04:56:52.117Z,1.77
2022-08-04T04:59:23.281Z,1.90
2022-08-04T05:01:50.781Z,2.43
2022-08-04T05:04:41.642Z,2.20
2022-08-04T05:07:24.250Z,2.20
2022-08-04T05:10:00.680Z,2.40
2022-08-04T05:14:32.265Z,2.30
2022-08-04T05:15:32.872Z,1.90
2022-08-04T05:18:01.593Z,2.43
2022-08-04T05:20:35.609Z,2.17
2022-08-04T05:23:06.784Z,2.90
2022-08-04T05:25:58.613Z,2.53
2022-08-04T05:28:35.274Z,2.67
2022-08-04T05:31:11.679Z,2.80
2022-08-04T05:33:47.829Z,2.40
2022-08-04T05:36:35.311Z,2.25
2022-08-04T05:39:07.881Z,4.93
2022-08-04T05:41:45.151Z,3.72
2022-08-04T05:44:15.751Z,2.53
2022-08-04T05:46:44.687Z,7.40
2022-08-04T05:49:22.655Z,5.15
2022-08-04T05:51:51.095Z,3.15
2022-08-04T05:54:19.204Z,3.33
2022-08-04T05:56:46.967Z,3.30
2022-08-04T05:59:15.329Z,2.55
2022-08-04T06:01:54.936Z,3.50
2022-08-04T06:04:25.691Z,2.00
2022-08-04T06:06:53.685Z,2.90
2022-08-04T06:09:21.223Z,2.00
2022-08-04T06:12:02.028Z,2.03
2022-08-04T06:14:51.477Z,2.10
2022-08-04T06:18:33.783Z,2.72
2022-08-04T06:20:19.610Z,2.58
2022-08-04T06:22:53.902Z,2.55
2022-08-04T06:25:23.454Z,2.00
2022-08-04T06:27:51.357Z,2.28
2022-08-04T06:30:19.290Z,2.95
2022-08-04T06:32:47.534Z,2.70
2022-08-04T06:35:18.832Z,2.05
2022-08-04T06:37:48.139Z,1.80
2022-08-04T06:40:31.232Z,2.38
2022-08-04T06:43:05.055Z,2.70
2022-08-04T06:45:34.053Z,1.90
2022-08-04T06:48:01.668Z,1.88
2022-08-04T06:51:27.573Z,2.20
2022-08-04T06:53:18.051Z,2.22
2022-08-04T06:55:49.322Z,1.73
2022-08-04T06:58:17.879Z,2.33
2022-08-04T07:00:46.545Z,2.00
2022-08-04T07:03:14.676Z,2.40
2022-08-04T07:05:42.609Z,1.77
2022-08-04T07:08:13.009Z,1.83
2022-08-04T07:10:41.332Z,2.10
2022-08-04T07:13:09.232Z,2.43
2022-08-04T07:15:37.336Z,1.90
2022-08-04T07:18:05.009Z,1.60
2022-08-04T07:20:35.317Z,2.07
2022-08-04T07:23:04.879Z,1.87
2022-08-04T07:25:58.800Z,2.20
2022-08-04T07:28:21.236Z,2.00
2022-08-04T07:30:50.113Z,1.57
2022-08-04T07:33:18.470Z,2.17
2022-08-04T07:36:09.346Z,2.07
2022-08-04T07:38:37.576Z,2.10
2022-08-04T07:43:59.144Z,1.73
2022-08-04T07:46:27.015Z,1.60
2022-08-04T07:49:00.511Z,1.67
2022-08-04T07:51:28.568Z,2.27
2022-08-04T07:53:57.255Z,2.10
2022-08-04T07:56:26.513Z,2.20
2022-08-04T07:58:54.391Z,1.93
2022-08-04T08:01:22.445Z,2.20
2022-08-04T08:03:50.463Z,1.90
2022-08-04T08:06:32.870Z,2.13
2022-08-04T08:09:13.461Z,2.07
2022-08-04T08:12:37.643Z,2.60
2022-08-04T08:14:30.152Z,1.60
2022-08-04T08:16:59.264Z,1.80
2022-08-04T08:19:26.811Z,1.60
2022-08-04T08:21:58.923Z,2.13
2022-08-04T08:24:28.502Z,1.93
2022-08-04T08:26:56.103Z,2.40
2022-08-04T08:29:24.139Z,2.07
2022-08-04T08:31:58.419Z,1.60
2022-08-04T08:34:28.745Z,1.60
2022-08-04T08:37:05.012Z,1.73
2022-08-04T08:39:36.967Z,1.75
2022-08-04T08:42:13.888Z,1.88
2022-08-04T08:44:44.527Z,1.77
2022-08-04T08:47:14.982Z,2.97
2022-08-04T08:50:04.341Z,1.90
2022-08-04T08:52:55.274Z,1.45
2022-08-04T08:55:22.731Z,1.67
2022-08-04T08:57:59.830Z,2.30
2022-08-04T09:00:51.875Z,2.33
2022-08-04T09:03:38.318Z,1.85
2022-08-04T09:06:24.682Z,1.65
2022-08-04T09:08:55.161Z,1.60
2022-08-04T09:11:28.629Z,2.20
2022-08-04T09:14:05.974Z,1.80
2022-08-04T09:16:39.398Z,2.30
2022-08-04T09:19:10.173Z,1.85
2022-08-04T09:22:16.060Z,1.55
2022-08-04T09:25:02.275Z,2.50
2022-08-04T09:27:38.705Z,2.33
2022-08-04T09:30:07.596Z,1.77
2022-08-04T09:32:53.831Z,1.70
2022-08-04T09:35:32.832Z,1.92
2022-08-04T09:38:03.115Z,1.65
2022-08-04T09:40:35.649Z,1.92
2022-08-04T09:43:28.640Z,1.80
2022-08-04T09:46:19.855Z,1.85
2022-08-04T09:48:47.367Z,1.73
2022-08-04T09:51:17.861Z,2.00
2022-08-04T09:53:51.399Z,1.90
2022-08-04T09:56:19.162Z,1.70
2022-08-04T09:58:49.615Z,1.45
2022-08-04T10:01:23.646Z,1.58
2022-08-04T10:03:53.777Z,1.90
2022-08-04T10:06:34.934Z,1.90
2022-08-04T10:09:02.433Z,1.63
2022-08-04T10:11:33.040Z,1.52
2022-08-04T10:14:06.824Z,1.73
2022-08-04T10:16:46.321Z,1.77
2022-08-04T10:19:30.183Z,1.80
2022-08-04T10:22:28.741Z,1.80
2022-08-04T10:26:03.121Z,1.38
2022-08-04T10:27:56.274Z,1.50
2022-08-04T10:30:24.262Z,1.98
2022-08-04T10:32:54.842Z,1.60
2022-08-04T10:35:23.909Z,1.83
2022-08-04T10:38:01.117Z,1.70
2022-08-04T10:40:35.264Z,1.98
2022-08-04T10:43:22.871Z,1.33
2022-08-04T10:45:58.907Z,1.58
2022-08-04T10:48:38.477Z,1.80
2022-08-04T10:51:17.594Z,1.70
2022-08-04T10:53:46.102Z,1.85
2022-08-04T10:56:20.107Z,2.60
2022-08-04T10:58:50.656Z,1.88
2022-08-04T11:02:01.519Z,1.50
2022-08-04T11:04:32.432Z,2.08
2022-08-04T11:07:00.941Z,1.75
2022-08-04T11:09:29.266Z,1.67
2022-08-04T11:12:00.980Z,1.40
2022-08-04T11:14:33.941Z,1.60
2022-08-04T11:17:07.230Z,1.88
2022-08-04T11:19:44.990Z,1.65
2022-08-04T11:22:20.807Z,1.40
2022-08-04T11:24:48.361Z,1.70
2022-08-04T11:27:16.997Z,1.70
2022-08-04T11:30:03.200Z,1.40
2022-08-04T11:32:51.179Z,1.77
2022-08-04T11:35:37.611Z,1.90
2022-08-04T11:38:07.891Z,1.60
2022-08-04T11:40:37.576Z,1.92
2022-08-04T11:43:09.254Z,2.10
2022-08-04T11:45:41.738Z,2.03
2022-08-04T11:48:14.401Z,1.77
2022-08-04T11:50:47.406Z,2.20
2022-08-04T11:53:21.069Z,2.17
2022-08-04T11:56:07.400Z,1.55
2022-08-04T11:58:36.979Z,1.52
2022-08-04T12:01:09.510Z,1.73
2022-08-04T12:04:03.845Z,1.98
2022-08-04T12:06:31.949Z,1.75
2022-08-04T12:09:19.699Z,1.77
2022-08-04T12:11:47.219Z,2.13
2022-08-04T12:14:37.351Z,2.15
2022-08-04T12:17:05.848Z,2.15
2022-08-04T12:19:52.148Z,1.85
2022-08-04T12:22:26.388Z,2.17
2022-08-04T12:24:59.684Z,3.47
2022-08-04T12:27:45.702Z,2.58
2022-08-04T12:30:59.636Z,2.30
2022-08-04T12:33:01.370Z,2.75
2022-08-04T12:35:34.690Z,2.67
2022-08-04T12:38:12.542Z,2.40
2022-08-04T12:40:41.759Z,2.65
2022-08-04T12:43:12.012Z,2.47
2022-08-04T12:45:44.037Z,2.10
2022-08-04T12:48:21.119Z,2.95
2022-08-04T12:50:56.836Z,3.28
2022-08-04T12:53:32.052Z,2.67
2022-08-04T12:56:02.092Z,2.55
2022-08-04T12:58:41.906Z,2.13
2022-08-04T13:02:10.207Z,2.83
2022-08-04T13:04:16.899Z,2.78
2022-08-04T13:06:45.504Z,2.45
2022-08-04T13:09:18.346Z,2.45
2022-08-04T13:11:50.072Z,2.30
2022-08-04T13:14:27.191Z,2.35
2022-08-04T13:17:01.645Z,2.05
2022-08-04T13:19:30.341Z,1.98
2022-08-04T13:22:02.521Z,2.08
2022-08-04T13:24:32.650Z,2.00
2022-08-04T13:27:04.204Z,1.92
2022-08-04T13:30:00.715Z,2.55
2022-08-04T13:32:30.692Z,2.20
2022-08-04T13:34:58.831Z,2.42
2022-08-04T13:37:30.825Z,2.15
2022-08-04T13:39:58.764Z,2.38
2022-08-04T13:42:27.094Z,1.90
2022-08-04T13:44:56.851Z,2.45
2022-08-04T13:47:27.921Z,2.40
2022-08-04T13:50:13.076Z,1.90
2022-08-04T13:52:42.665Z,2.45
2022-08-04T13:55:20.626Z,1.80
2022-08-04T13:57:50.538Z,2.25
2022-08-04T14:00:29.312Z,2.47
2022-08-04T14:03:03.172Z,1.83
2022-08-04T14:05:58.857Z,2.00
2022-08-04T14:08:26.959Z,1.80
2022-08-04T14:10:57.377Z,2.15
2022-08-04T14:13:41.809Z,1.73
2022-08-04T14:16:17.066Z,1.88
2022-08-04T14:18:44.690Z,2.13
2022-08-04T14:21:13.347Z,2.30
2022-08-04T14:23:51.271Z,2.00
2022-08-04T14:26:18.772Z,1.75
2022-08-04T14:29:25.731Z,2.35
2022-08-04T14:31:34.376Z,1.77
2022-08-04T14:34:09.926Z,2.05
2022-08-04T14:37:13.912Z,2.10
2022-08-04T14:39:39.315Z,2.20
2022-08-04T14:42:07.494Z,1.70
2022-08-04T14:44:55.271Z,1.60
2022-08-04T14:47:39.710Z,1.70
2022-08-04T14:50:11.313Z,2.20
2022-08-04T14:52:39.178Z,1.80
2022-08-04T14:55:23.721Z,2.20
2022-08-04T14:58:36.228Z,1.87
2022-08-04T15:00:39.927Z,2.00
2022-08-04T15:03:09.076Z,2.10
2022-08-04T15:05:55.389Z,2.00
2022-08-04T15:08:30.966Z,2.05
2022-08-04T15:11:03.000Z,2.03
2022-08-04T15:13:31.858Z,2.50
2022-08-04T15:16:07.335Z,2.03
2022-08-04T15:18:37.114Z,2.30
2022-08-04T15:21:05.404Z,1.90
2022-08-04T15:23:39.503Z,1.70
2022-08-04T15:26:13.537Z,2.00
2022-08-04T15:28:42.226Z,2.13
2022-08-04T15:32:04.437Z,2.07
2022-08-04T15:33:58.368Z,2.37
2022-08-04T15:36:26.037Z,2.10
2022-08-04T15:38:53.767Z,2.13
2022-08-04T15:41:35.931Z,2.27
2022-08-04T15:44:32.686Z,2.30
2022-08-04T15:47:13.693Z,2.60
2022-08-04T15:49:41.343Z,2.53
2022-08-04T15:52:18.342Z,2.53
2022-08-04T15:54:52.700Z,4.67
2022-08-04T15:57:40.550Z,3.53
2022-08-04T16:00:12.815Z,4.47
2022-08-04T16:02:44.284Z,3.80
2022-08-04T16:05:18.069Z,4.03
2022-08-04T16:07:55.088Z,2.90
2022-08-04T16:10:31.433Z,2.47
2022-08-04T16:13:00.590Z,3.50
2022-08-04T16:15:47.782Z,2.50
2022-08-04T16:18:27.552Z,3.07
2022-08-04T16:20:59.632Z,3.27
2022-08-04T16:23:54.329Z,3.23
2022-08-04T16:26:45.732Z,3.10
2022-08-04T16:29:23.124Z,2.93
2022-08-04T16:32:06.242Z,2.60
2022-08-04T16:34:48.155Z,2.63
2022-08-04T16:37:19.485Z,2.73
2022-08-04T16:39:50.451Z,3.07
2022-08-04T16:42:28.261Z,1.90
2022-08-04T16:45:00.134Z,3.30
2022-08-04T16:47:47.915Z,1.83
2022-08-04T16:50:16.651Z,2.20
2022-08-04T16:52:54.329Z,2.30
2022-08-04T16:55:23.025Z,2.33
2022-08-04T16:57:51.362Z,1.93
2022-08-04T17:00:19.617Z,1.83
2022-08-04T17:02:47.486Z,1.83
2022-08-04T17:05:39.409Z,2.10
2022-08-04T17:10:58.952Z,1.70
2022-08-04T17:14:04.700Z,1.80
2022-08-04T17:16:18.085Z,2.10
2022-08-04T17:18:50.980Z,1.97
2022-08-04T17:21:23.059Z,1.60
2022-08-04T17:24:14.987Z,1.60
2022-08-04T17:26:41.420Z,1.90
2022-08-04T17:29:09.592Z,1.80
2022-08-04T17:31:40.729Z,1.80
2022-08-04T17:34:15.779Z,1.87
2022-08-04T17:36:44.488Z,2.30
2022-08-04T17:39:17.485Z,1.90
2022-08-04T17:41:48.951Z,2.07
2022-08-04T17:44:20.542Z,2.20
2022-08-04T17:46:50.441Z,2.10
2022-08-04T17:49:18.961Z,2.37
2022-08-04T17:52:04.930Z,2.03
2022-08-04T17:54:37.182Z,2.13
2022-08-04T17:57:19.595Z,2.30
2022-08-04T17:59:56.339Z,2.27
2022-08-04T18:02:32.564Z,2.17
2022-08-04T18:08:46.278Z,1.83
2022-08-04T18:10:44.766Z,2.07
2022-08-04T18:13:26.998Z,1.60
2022-08-04T18:19:13.310Z,1.77
2022-08-04T18:21:46.207Z,1.87
2022-08-04T18:24:35.914Z,1.90
2022-08-04T18:27:17.651Z,2.07
2022-08-04T18:30:14.631Z,2.17
2022-08-04T18:32:33.150Z,1.60
2022-08-04T18:35:05.019Z,1.60
2022-08-04T18:38:05.111Z,1.63
2022-08-04T18:40:26.802Z,1.87
2022-08-04T18:43:00.077Z,1.80
2022-08-04T18:45:34.665Z,1.70
2022-08-04T18:48:14.099Z,2.07
2022-08-04T18:51:10.182Z,1.70
2022-08-04T18:53:36.139Z,3.17
2022-08-04T18:56:06.047Z,1.73
2022-08-04T18:58:43.019Z,1.70
2022-08-04T19:01:13.576Z,2.00
2022-08-04T19:03:44.263Z,2.17
2022-08-04T19:06:13.327Z,2.10
2022-08-04T19:08:42.322Z,1.93
2022-08-04T19:13:58.900Z,1.60
2022-08-04T19:16:27.737Z,2.20
2022-08-04T19:18:57.037Z,1.93
2022-08-04T19:22:00.726Z,1.80
2022-08-04T19:24:32.156Z,1.67
2022-08-04T19:27:00.840Z,2.07
2022-08-04T19:29:37.572Z,2.40
2022-08-04T19:32:14.765Z,1.80
2022-08-04T19:34:47.341Z,1.43
2022-08-04T19:37:56.304Z,1.60
2022-08-04T19:40:09.556Z,1.73
2022-08-04T19:42:40.380Z,1.80
2022-08-04T19:45:09.303Z,1.83
2022-08-04T19:48:16.011Z,2.73
2022-08-04T19:50:33.057Z,1.70
2022-08-04T19:53:00.778Z,1.87
2022-08-04T19:55:37.333Z,2.80
2022-08-04T19:58:08.323Z,1.63
2022-08-04T20:00:38.070Z,2.07
2022-08-04T20:03:11.737Z,2.40
2022-08-04T20:05:54.351Z,3.03
2022-08-04T20:08:31.762Z,2.20
2022-08-04T20:10:59.377Z,2.00
2022-08-04T20:13:31.003Z,2.17
2022-08-04T20:16:06.518Z,2.20
2022-08-04T20:18:56.890Z,2.13
2022-08-04T20:21:53.876Z,2.60
2022-08-04T20:24:39.122Z,2.33
2022-08-04T20:27:07.849Z,2.17
2022-08-04T20:29:40.751Z,3.10
2022-08-04T20:32:10.443Z,2.40
2022-08-04T20:34:40.131Z,2.30
2022-08-04T20:37:10.442Z,2.60
2022-08-04T20:39:38.308Z,3.17
2022-08-04T20:42:06.575Z,3.00
2022-08-04T20:44:33.983Z,2.57
2022-08-04T20:47:01.507Z,2.50
2022-08-04T20:49:35.191Z,1.50
2022-08-04T20:52:13.382Z,1.93
2022-08-04T20:54:48.419Z,1.20
2022-08-04T20:57:16.856Z,1.60
2022-08-04T20:59:59.436Z,1.47
2022-08-04T21:02:27.982Z,1.60
2022-08-04T21:04:56.133Z,1.60
2022-08-04T21:07:24.398Z,1.23
2022-08-04T21:09:52.562Z,1.30
2022-08-04T21:12:27.526Z,1.20
2022-08-04T21:14:59.489Z,1.70
2022-08-04T21:17:56.686Z,1.53
2022-08-04T21:20:14.841Z,1.07
2022-08-04T21:22:55.671Z,1.70
2022-08-04T21:25:27.511Z,1.37
2022-08-04T21:27:55.051Z,1.10
2022-08-04T21:30:26.665Z,1.23
2022-08-04T21:32:55.362Z,1.20
2022-08-04T21:35:37.196Z,1.33
2022-08-04T21:38:16.448Z,1.30
2022-08-04T21:40:55.088Z,1.40
2022-08-04T21:43:23.593Z,1.50
2022-08-04T21:45:55.771Z,1.37
2022-08-04T21:48:23.967Z,1.30
2022-08-04T21:53:54.674Z,1.37
2022-08-04T21:56:26.502Z,1.53
2022-08-04T21:58:54.401Z,1.67
2022-08-04T22:01:49.918Z,1.60
2022-08-04T22:04:13.633Z,1.97
2022-08-04T22:06:41.272Z,1.50
2022-08-04T22:09:14.505Z,2.10
2022-08-04T22:11:50.297Z,1.70
2022-08-04T22:14:27.566Z,1.40
2022-08-04T22:16:56.869Z,1.80
2022-08-04T22:19:27.406Z,2.73
2022-08-04T22:22:09.443Z,2.23
2022-08-04T22:24:37.086Z,1.67
2022-08-04T22:27:11.038Z,2.13
2022-08-04T22:29:39.397Z,2.30
2022-08-04T22:32:12.477Z,2.60
2022-08-04T22:34:39.927Z,2.40
2022-08-04T22:37:13.316Z,2.83
2022-08-04T22:39:56.107Z,2.83
2022-08-04T22:42:24.966Z,2.33
2022-08-04T22:44:52.872Z,3.57
2022-08-04T22:47:23.845Z,2.50
2022-08-04T22:50:28.173Z,2.87
2022-08-04T22:52:56.323Z,2.70
2022-08-04T22:55:24.026Z,2.97
2022-08-04T22:58:04.968Z,2.70
2022-08-04T23:00:33.363Z,1.87
2022-08-04T23:03:01.031Z,3.03
2022-08-04T23:05:29.046Z,2.30
2022-08-04T23:08:04.133Z,3.70
2022-08-04T23:10:33.162Z,2.83
2022-08-04T23:13:04.194Z,3.03
2022-08-04T23:15:33.890Z,3.30
2022-08-04T23:18:01.551Z,3.90
2022-08-04T23:20:32.973Z,3.20
2022-08-04T23:23:14.741Z,2.63
2022-08-04T23:26:08.613Z,3.10
2022-08-04T23:28:33.474Z,2.83
2022-08-04T23:31:02.872Z,3.77
2022-08-04T23:33:50.810Z,3.27
2022-08-04T23:36:18.262Z,2.80
2022-08-04T23:38:46.240Z,3.13
2022-08-04T23:41:15.574Z,3.33
2022-08-04T23:43:54.899Z,3.80
2022-08-04T23:46:23.224Z,3.83
2022-08-04T23:48:50.784Z,3.60
2022-08-04T23:51:18.338Z,3.80
2022-08-04T23:54:02.134Z,4.07
2022-08-04T23:56:32.239Z,3.57
2022-08-04T23:59:03.450Z,3.03
